sensor_id;sensor_type;location;lat;lon;timestamp;temperature;humidity
51661;DHT22;37741;49.748;8.490;2022-12-07T00:01:18;4.80;90.10
51661;DHT22;37741;49.748;8.490;2022-12-07T00:03:45;4.80;90.20
51661;DHT22;37741;49.748;8.490;2022-12-07T00:06:12;4.80;90.20
51661;DHT22;37741;49.748;8.490;2022-12-07T00:08:38;4.80;90.20
51661;DHT22;37741;49.748;8.490;2022-12-07T00:11:05;4.80;90.20
51661;DHT22;37741;49.748;8.490;2022-12-07T00:13:33;4.80;90.20
51661;DHT22;37741;49.748;8.490;2022-12-07T00:16:08;4.80;90.20
51661;DHT22;37741;49.748;8.490;2022-12-07T00:18:34;4.80;90.10
51661;DHT22;37741;49.748;8.490;2022-12-07T00:21:06;4.80;90.10
51661;DHT22;37741;49.748;8.490;2022-12-07T00:23:33;4.80;90.10
51661;DHT22;37741;49.748;8.490;2022-12-07T00:26:29;4.80;90.10
51661;DHT22;37741;49.748;8.490;2022-12-07T00:28:58;4.80;90.10
51661;DHT22;37741;49.748;8.490;2022-12-07T00:31:26;4.80;90.10
51661;DHT22;37741;49.748;8.490;2022-12-07T00:33:52;4.80;90.10
51661;DHT22;37741;49.748;8.490;2022-12-07T00:36:20;4.80;90.10
51661;DHT22;37741;49.748;8.490;2022-12-07T00:38:46;4.80;90.00
51661;DHT22;37741;49.748;8.490;2022-12-07T00:41:16;4.80;90.00
51661;DHT22;37741;49.748;8.490;2022-12-07T00:43:43;4.80;90.00
51661;DHT22;37741;49.748;8.490;2022-12-07T00:46:10;4.80;90.00
51661;DHT22;37741;49.748;8.490;2022-12-07T00:48:36;4.80;90.00
51661;DHT22;37741;49.748;8.490;2022-12-07T00:51:02;4.80;90.00
51661;DHT22;37741;49.748;8.490;2022-12-07T00:53:29;4.80;90.00
51661;DHT22;37741;49.748;8.490;2022-12-07T00:55:55;4.80;90.00
51661;DHT22;37741;49.748;8.490;2022-12-07T00:58:23;4.80;90.00
51661;DHT22;37741;49.748;8.490;2022-12-07T01:00:49;4.80;90.00
51661;DHT22;37741;49.748;8.490;2022-12-07T01:03:16;4.80;90.00
51661;DHT22;37741;49.748;8.490;2022-12-07T01:05:50;4.80;90.00
51661;DHT22;37741;49.748;8.490;2022-12-07T01:08:16;4.80;90.00
51661;DHT22;37741;49.748;8.490;2022-12-07T01:10:41;4.80;90.00
51661;DHT22;37741;49.748;8.490;2022-12-07T01:13:07;4.80;90.00
51661;DHT22;37741;49.748;8.490;2022-12-07T01:15:33;4.80;90.00
51661;DHT22;37741;49.748;8.490;2022-12-07T01:17:58;4.80;90.00
51661;DHT22;37741;49.748;8.490;2022-12-07T01:20:24;4.80;90.00
51661;DHT22;37741;49.748;8.490;2022-12-07T01:22:49;4.80;90.00
51661;DHT22;37741;49.748;8.490;2022-12-07T01:25:15;4.80;90.00
51661;DHT22;37741;49.748;8.490;2022-12-07T01:27:40;4.70;89.90
51661;DHT22;37741;49.748;8.490;2022-12-07T01:30:07;4.80;90.00
51661;DHT22;37741;49.748;8.490;2022-12-07T01:32:33;4.80;89.90
51661;DHT22;37741;49.748;8.490;2022-12-07T01:34:58;4.80;89.90
51661;DHT22;37741;49.748;8.490;2022-12-07T01:37:24;4.70;89.90
51661;DHT22;37741;49.748;8.490;2022-12-07T01:39:53;4.70;89.90
51661;DHT22;37741;49.748;8.490;2022-12-07T01:42:18;4.80;89.90
51661;DHT22;37741;49.748;8.490;2022-12-07T01:47:48;4.70;89.90
51661;DHT22;37741;49.748;8.490;2022-12-07T01:50:16;4.70;89.90
51661;DHT22;37741;49.748;8.490;2022-12-07T01:52:43;4.70;89.90
51661;DHT22;37741;49.748;8.490;2022-12-07T01:55:13;4.70;89.90
51661;DHT22;37741;49.748;8.490;2022-12-07T01:57:46;4.70;89.90
51661;DHT22;37741;49.748;8.490;2022-12-07T02:00:13;4.70;89.90
51661;DHT22;37741;49.748;8.490;2022-12-07T02:05:28;4.70;89.90
51661;DHT22;37741;49.748;8.490;2022-12-07T02:07:56;4.70;89.90
51661;DHT22;37741;49.748;8.490;2022-12-07T02:10:26;4.70;89.90
51661;DHT22;37741;49.748;8.490;2022-12-07T02:12:55;4.70;89.90
51661;DHT22;37741;49.748;8.490;2022-12-07T02:15:27;4.70;89.90
51661;DHT22;37741;49.748;8.490;2022-12-07T02:21:19;4.70;89.90
51661;DHT22;37741;49.748;8.490;2022-12-07T02:24:10;4.70;89.90
51661;DHT22;37741;49.748;8.490;2022-12-07T02:29:40;4.70;89.90
51661;DHT22;37741;49.748;8.490;2022-12-07T02:32:44;4.70;89.90
51661;DHT22;37741;49.748;8.490;2022-12-07T02:35:25;4.60;89.80
51661;DHT22;37741;49.748;8.490;2022-12-07T02:38:02;4.60;89.80
51661;DHT22;37741;49.748;8.490;2022-12-07T02:40:43;4.70;89.90
51661;DHT22;37741;49.748;8.490;2022-12-07T02:45:41;4.60;89.90
51661;DHT22;37741;49.748;8.490;2022-12-07T02:48:12;4.60;89.80
51661;DHT22;37741;49.748;8.490;2022-12-07T02:50:39;4.60;89.90
51661;DHT22;37741;49.748;8.490;2022-12-07T02:56:13;4.60;89.80
51661;DHT22;37741;49.748;8.490;2022-12-07T02:58:57;4.60;89.80
51661;DHT22;37741;49.748;8.490;2022-12-07T03:06:51;4.60;89.80
51661;DHT22;37741;49.748;8.490;2022-12-07T03:09:30;4.60;89.80
51661;DHT22;37741;49.748;8.490;2022-12-07T03:12:08;4.60;89.80
51661;DHT22;37741;49.748;8.490;2022-12-07T03:14:41;4.60;89.80
51661;DHT22;37741;49.748;8.490;2022-12-07T03:17:13;4.60;89.80
51661;DHT22;37741;49.748;8.490;2022-12-07T03:19:40;4.60;89.80
51661;DHT22;37741;49.748;8.490;2022-12-07T03:22:09;4.60;89.80
51661;DHT22;37741;49.748;8.490;2022-12-07T03:24:45;4.60;89.90
51661;DHT22;37741;49.748;8.490;2022-12-07T03:27:18;4.60;89.80
51661;DHT22;37741;49.748;8.490;2022-12-07T03:29:56;4.60;89.90
51661;DHT22;37741;49.748;8.490;2022-12-07T03:32:37;4.60;89.90
51661;DHT22;37741;49.748;8.490;2022-12-07T03:35:18;4.60;89.80
51661;DHT22;37741;49.748;8.490;2022-12-07T03:42:48;4.60;89.80
51661;DHT22;37741;49.748;8.490;2022-12-07T03:45:14;4.60;89.80
51661;DHT22;37741;49.748;8.490;2022-12-07T03:47:57;4.60;89.80
51661;DHT22;37741;49.748;8.490;2022-12-07T03:53:15;4.60;89.80
51661;DHT22;37741;49.748;8.490;2022-12-07T03:55:46;4.60;89.80
51661;DHT22;37741;49.748;8.490;2022-12-07T03:58:17;4.60;89.80
51661;DHT22;37741;49.748;8.490;2022-12-07T04:00:44;4.60;89.80
51661;DHT22;37741;49.748;8.490;2022-12-07T04:03:11;4.60;89.80
51661;DHT22;37741;49.748;8.490;2022-12-07T04:05:37;4.60;89.80
51661;DHT22;37741;49.748;8.490;2022-12-07T04:08:04;4.60;89.80
51661;DHT22;37741;49.748;8.490;2022-12-07T04:10:30;4.60;89.80
51661;DHT22;37741;49.748;8.490;2022-12-07T04:12:56;4.60;89.80
51661;DHT22;37741;49.748;8.490;2022-12-07T04:15:22;4.60;89.80
51661;DHT22;37741;49.748;8.490;2022-12-07T04:17:47;4.60;89.80
51661;DHT22;37741;49.748;8.490;2022-12-07T04:20:13;4.60;89.80
51661;DHT22;37741;49.748;8.490;2022-12-07T04:22:38;4.60;89.80
51661;DHT22;37741;49.748;8.490;2022-12-07T04:25:04;4.60;89.80
51661;DHT22;37741;49.748;8.490;2022-12-07T04:27:30;4.60;90.10
51661;DHT22;37741;49.748;8.490;2022-12-07T04:29:56;4.60;89.80
51661;DHT22;37741;49.748;8.490;2022-12-07T04:32:22;4.60;90.10
51661;DHT22;37741;49.748;8.490;2022-12-07T04:34:48;4.60;89.80
51661;DHT22;37741;49.748;8.490;2022-12-07T04:37:13;4.60;89.80
51661;DHT22;37741;49.748;8.490;2022-12-07T04:39:39;4.60;89.80
51661;DHT22;37741;49.748;8.490;2022-12-07T04:42:05;4.60;89.80
51661;DHT22;37741;49.748;8.490;2022-12-07T04:44:30;4.60;89.80
51661;DHT22;37741;49.748;8.490;2022-12-07T04:46:56;4.60;89.80
51661;DHT22;37741;49.748;8.490;2022-12-07T04:49:22;4.60;89.90
51661;DHT22;37741;49.748;8.490;2022-12-07T04:51:48;4.60;89.80
51661;DHT22;37741;49.748;8.490;2022-12-07T04:54:15;4.60;89.90
51661;DHT22;37741;49.748;8.490;2022-12-07T04:56:41;4.60;89.90
51661;DHT22;37741;49.748;8.490;2022-12-07T04:59:06;4.60;89.80
51661;DHT22;37741;49.748;8.490;2022-12-07T05:01:32;4.60;89.90
51661;DHT22;37741;49.748;8.490;2022-12-07T05:03:58;4.60;89.90
51661;DHT22;37741;49.748;8.490;2022-12-07T05:06:24;4.60;89.90
51661;DHT22;37741;49.748;8.490;2022-12-07T05:08:50;4.60;89.90
51661;DHT22;37741;49.748;8.490;2022-12-07T05:11:16;4.60;89.80
51661;DHT22;37741;49.748;8.490;2022-12-07T05:14:01;4.60;90.20
51661;DHT22;37741;49.748;8.490;2022-12-07T05:16:27;4.60;89.90
51661;DHT22;37741;49.748;8.490;2022-12-07T05:18:53;4.60;89.80
51661;DHT22;37741;49.748;8.490;2022-12-07T05:21:19;4.60;89.80
51661;DHT22;37741;49.748;8.490;2022-12-07T05:23:45;4.60;89.80
51661;DHT22;37741;49.748;8.490;2022-12-07T05:26:10;4.60;89.80
51661;DHT22;37741;49.748;8.490;2022-12-07T05:28:36;4.60;89.80
51661;DHT22;37741;49.748;8.490;2022-12-07T05:31:02;4.60;89.80
51661;DHT22;37741;49.748;8.490;2022-12-07T05:33:27;4.60;89.90
51661;DHT22;37741;49.748;8.490;2022-12-07T05:35:53;4.60;90.00
51661;DHT22;37741;49.748;8.490;2022-12-07T05:38:18;4.60;89.90
51661;DHT22;37741;49.748;8.490;2022-12-07T05:40:44;4.60;90.00
51661;DHT22;37741;49.748;8.490;2022-12-07T05:43:10;4.60;90.00
51661;DHT22;37741;49.748;8.490;2022-12-07T05:45:35;4.60;90.00
51661;DHT22;37741;49.748;8.490;2022-12-07T05:48:01;4.60;90.00
51661;DHT22;37741;49.748;8.490;2022-12-07T05:50:27;4.60;90.00
51661;DHT22;37741;49.748;8.490;2022-12-07T05:52:53;4.60;89.90
51661;DHT22;37741;49.748;8.490;2022-12-07T05:55:19;4.60;89.90
51661;DHT22;37741;49.748;8.490;2022-12-07T05:57:44;4.60;89.90
51661;DHT22;37741;49.748;8.490;2022-12-07T06:00:30;4.60;90.00
51661;DHT22;37741;49.748;8.490;2022-12-07T06:02:55;4.60;89.90
51661;DHT22;37741;49.748;8.490;2022-12-07T06:05:21;4.60;89.90
51661;DHT22;37741;49.748;8.490;2022-12-07T06:07:47;4.60;89.90
51661;DHT22;37741;49.748;8.490;2022-12-07T06:10:12;4.60;90.00
51661;DHT22;37741;49.748;8.490;2022-12-07T06:12:38;4.60;89.90
51661;DHT22;37741;49.748;8.490;2022-12-07T06:15:05;4.60;89.90
51661;DHT22;37741;49.748;8.490;2022-12-07T06:17:31;4.60;89.90
51661;DHT22;37741;49.748;8.490;2022-12-07T06:19:56;4.60;89.90
51661;DHT22;37741;49.748;8.490;2022-12-07T06:22:22;4.60;89.90
51661;DHT22;37741;49.748;8.490;2022-12-07T06:24:48;4.60;89.90
51661;DHT22;37741;49.748;8.490;2022-12-07T06:27:13;4.60;89.90
51661;DHT22;37741;49.748;8.490;2022-12-07T06:29:39;4.60;89.90
51661;DHT22;37741;49.748;8.490;2022-12-07T06:32:05;4.60;89.90
51661;DHT22;37741;49.748;8.490;2022-12-07T06:34:30;4.60;89.90
51661;DHT22;37741;49.748;8.490;2022-12-07T06:36:56;4.60;89.90
51661;DHT22;37741;49.748;8.490;2022-12-07T06:39:25;4.60;89.90
51661;DHT22;37741;49.748;8.490;2022-12-07T06:41:52;4.60;89.90
51661;DHT22;37741;49.748;8.490;2022-12-07T06:44:18;4.60;89.90
51661;DHT22;37741;49.748;8.490;2022-12-07T06:46:44;4.60;89.90
51661;DHT22;37741;49.748;8.490;2022-12-07T06:49:09;4.60;89.90
51661;DHT22;37741;49.748;8.490;2022-12-07T06:51:35;4.60;89.90
51661;DHT22;37741;49.748;8.490;2022-12-07T06:54:03;4.60;89.90
51661;DHT22;37741;49.748;8.490;2022-12-07T06:56:29;4.60;89.90
51661;DHT22;37741;49.748;8.490;2022-12-07T06:58:55;4.60;89.90
51661;DHT22;37741;49.748;8.490;2022-12-07T07:01:20;4.60;90.00
51661;DHT22;37741;49.748;8.490;2022-12-07T07:03:46;4.60;89.90
51661;DHT22;37741;49.748;8.490;2022-12-07T07:06:12;4.60;89.90
51661;DHT22;37741;49.748;8.490;2022-12-07T07:08:39;4.60;89.90
51661;DHT22;37741;49.748;8.490;2022-12-07T07:11:06;4.60;89.90
51661;DHT22;37741;49.748;8.490;2022-12-07T07:13:32;4.60;90.00
51661;DHT22;37741;49.748;8.490;2022-12-07T07:15:58;4.60;89.90
51661;DHT22;37741;49.748;8.490;2022-12-07T07:18:23;4.60;89.90
51661;DHT22;37741;49.748;8.490;2022-12-07T07:20:50;4.60;89.90
51661;DHT22;37741;49.748;8.490;2022-12-07T07:23:16;4.60;89.90
51661;DHT22;37741;49.748;8.490;2022-12-07T07:25:42;4.60;89.90
51661;DHT22;37741;49.748;8.490;2022-12-07T07:28:07;4.60;89.90
51661;DHT22;37741;49.748;8.490;2022-12-07T07:30:33;4.60;89.90
51661;DHT22;37741;49.748;8.490;2022-12-07T07:33:04;4.60;89.90
51661;DHT22;37741;49.748;8.490;2022-12-07T07:35:32;4.60;90.00
51661;DHT22;37741;49.748;8.490;2022-12-07T07:37:58;4.60;89.90
51661;DHT22;37741;49.748;8.490;2022-12-07T07:40:24;4.60;89.90
51661;DHT22;37741;49.748;8.490;2022-12-07T07:42:51;4.50;89.90
51661;DHT22;37741;49.748;8.490;2022-12-07T07:45:18;4.60;89.90
51661;DHT22;37741;49.748;8.490;2022-12-07T07:47:44;4.60;89.90
51661;DHT22;37741;49.748;8.490;2022-12-07T07:50:09;4.60;89.90
51661;DHT22;37741;49.748;8.490;2022-12-07T07:52:35;4.60;89.90
51661;DHT22;37741;49.748;8.490;2022-12-07T07:55:01;4.60;89.90
51661;DHT22;37741;49.748;8.490;2022-12-07T07:57:26;4.60;90.20
51661;DHT22;37741;49.748;8.490;2022-12-07T07:59:52;4.60;89.90
51661;DHT22;37741;49.748;8.490;2022-12-07T08:02:19;4.60;89.90
51661;DHT22;37741;49.748;8.490;2022-12-07T08:04:45;4.60;89.90
51661;DHT22;37741;49.748;8.490;2022-12-07T08:07:12;4.60;89.90
51661;DHT22;37741;49.748;8.490;2022-12-07T08:09:38;4.60;89.90
51661;DHT22;37741;49.748;8.490;2022-12-07T08:12:04;4.60;89.90
51661;DHT22;37741;49.748;8.490;2022-12-07T08:14:30;4.60;89.90
51661;DHT22;37741;49.748;8.490;2022-12-07T08:16:56;4.60;89.90
51661;DHT22;37741;49.748;8.490;2022-12-07T08:19:22;4.60;89.90
51661;DHT22;37741;49.748;8.490;2022-12-07T08:21:47;4.60;89.90
51661;DHT22;37741;49.748;8.490;2022-12-07T08:24:13;4.60;89.90
51661;DHT22;37741;49.748;8.490;2022-12-07T08:26:39;4.60;89.90
51661;DHT22;37741;49.748;8.490;2022-12-07T08:29:05;4.60;89.90
51661;DHT22;37741;49.748;8.490;2022-12-07T08:31:30;4.60;89.90
51661;DHT22;37741;49.748;8.490;2022-12-07T08:33:57;4.60;89.90
51661;DHT22;37741;49.748;8.490;2022-12-07T08:36:22;4.60;89.90
51661;DHT22;37741;49.748;8.490;2022-12-07T08:38:48;4.60;89.90
51661;DHT22;37741;49.748;8.490;2022-12-07T08:41:14;4.60;89.90
51661;DHT22;37741;49.748;8.490;2022-12-07T08:43:40;4.60;89.80
51661;DHT22;37741;49.748;8.490;2022-12-07T08:48:49;4.60;89.90
51661;DHT22;37741;49.748;8.490;2022-12-07T08:51:15;4.60;89.90
51661;DHT22;37741;49.748;8.490;2022-12-07T08:53:41;4.60;89.80
51661;DHT22;37741;49.748;8.490;2022-12-07T08:56:08;4.60;89.90
51661;DHT22;37741;49.748;8.490;2022-12-07T08:58:35;4.60;89.80
51661;DHT22;37741;49.748;8.490;2022-12-07T09:01:01;4.60;89.90
51661;DHT22;37741;49.748;8.490;2022-12-07T09:03:26;4.60;89.80
51661;DHT22;37741;49.748;8.490;2022-12-07T09:05:53;4.60;89.80
51661;DHT22;37741;49.748;8.490;2022-12-07T09:08:19;4.70;89.90
51661;DHT22;37741;49.748;8.490;2022-12-07T09:10:45;4.60;89.80
51661;DHT22;37741;49.748;8.490;2022-12-07T09:13:11;4.70;89.80
51661;DHT22;37741;49.748;8.490;2022-12-07T09:15:37;4.60;89.80
51661;DHT22;37741;49.748;8.490;2022-12-07T09:18:03;4.70;89.80
51661;DHT22;37741;49.748;8.490;2022-12-07T09:20:28;4.60;89.80
51661;DHT22;37741;49.748;8.490;2022-12-07T09:22:54;4.70;89.80
51661;DHT22;37741;49.748;8.490;2022-12-07T09:25:19;4.60;89.80
51661;DHT22;37741;49.748;8.490;2022-12-07T09:27:45;4.60;89.80
51661;DHT22;37741;49.748;8.490;2022-12-07T09:30:11;4.60;89.80
51661;DHT22;37741;49.748;8.490;2022-12-07T09:32:37;4.70;89.90
51661;DHT22;37741;49.748;8.490;2022-12-07T09:35:03;4.60;89.80
51661;DHT22;37741;49.748;8.490;2022-12-07T09:37:28;4.60;89.80
51661;DHT22;37741;49.748;8.490;2022-12-07T09:39:54;4.60;89.90
51661;DHT22;37741;49.748;8.490;2022-12-07T09:42:37;4.70;89.90
51661;DHT22;37741;49.748;8.490;2022-12-07T09:45:10;4.70;89.90
51661;DHT22;37741;49.748;8.490;2022-12-07T09:47:37;4.70;89.90
51661;DHT22;37741;49.748;8.490;2022-12-07T09:50:05;4.70;89.90
51661;DHT22;37741;49.748;8.490;2022-12-07T09:52:32;4.70;89.90
51661;DHT22;37741;49.748;8.490;2022-12-07T09:54:58;4.70;89.90
51661;DHT22;37741;49.748;8.490;2022-12-07T09:57:30;4.70;89.90
51661;DHT22;37741;49.748;8.490;2022-12-07T10:00:00;4.70;89.90
51661;DHT22;37741;49.748;8.490;2022-12-07T10:02:39;4.70;89.90
51661;DHT22;37741;49.748;8.490;2022-12-07T10:05:07;4.70;89.90
51661;DHT22;37741;49.748;8.490;2022-12-07T10:07:35;4.70;89.90
51661;DHT22;37741;49.748;8.490;2022-12-07T10:10:24;4.70;89.90
51661;DHT22;37741;49.748;8.490;2022-12-07T10:12:57;4.80;89.90
51661;DHT22;37741;49.748;8.490;2022-12-07T10:15:24;4.80;89.90
51661;DHT22;37741;49.748;8.490;2022-12-07T10:18:17;4.80;89.80
51661;DHT22;37741;49.748;8.490;2022-12-07T10:20:46;4.80;89.80
51661;DHT22;37741;49.748;8.490;2022-12-07T10:23:18;4.80;90.20
51661;DHT22;37741;49.748;8.490;2022-12-07T10:25:44;4.80;89.80
51661;DHT22;37741;49.748;8.490;2022-12-07T10:28:14;4.80;89.80
51661;DHT22;37741;49.748;8.490;2022-12-07T10:31:01;4.80;89.90
51661;DHT22;37741;49.748;8.490;2022-12-07T10:33:55;4.80;89.80
51661;DHT22;37741;49.748;8.490;2022-12-07T10:36:38;4.80;89.80
51661;DHT22;37741;49.748;8.490;2022-12-07T10:39:18;4.80;89.80
51661;DHT22;37741;49.748;8.490;2022-12-07T10:41:59;4.90;89.80
51661;DHT22;37741;49.748;8.490;2022-12-07T10:44:28;4.90;89.80
51661;DHT22;37741;49.748;8.490;2022-12-07T10:47:06;4.90;89.80
51661;DHT22;37741;49.748;8.490;2022-12-07T10:49:46;4.90;89.80
51661;DHT22;37741;49.748;8.490;2022-12-07T11:03:19;5.00;89.70
51661;DHT22;37741;49.748;8.490;2022-12-07T11:08:41;5.00;89.60
51661;DHT22;37741;49.748;8.490;2022-12-07T11:11:22;5.00;89.70
51661;DHT22;37741;49.748;8.490;2022-12-07T11:14:20;5.00;89.60
51661;DHT22;37741;49.748;8.490;2022-12-07T11:17:05;5.00;89.60
51661;DHT22;37741;49.748;8.490;2022-12-07T11:32:05;5.00;89.50
51661;DHT22;37741;49.748;8.490;2022-12-07T11:37:13;5.10;89.40
51661;DHT22;37741;49.748;8.490;2022-12-07T11:42:16;5.20;89.20
51661;DHT22;37741;49.748;8.490;2022-12-07T11:45:10;5.10;89.10
51661;DHT22;37741;49.748;8.490;2022-12-07T11:47:45;5.20;89.00
51661;DHT22;37741;49.748;8.490;2022-12-07T11:53:01;5.20;89.00
51661;DHT22;37741;49.748;8.490;2022-12-07T11:58:39;5.20;88.90
51661;DHT22;37741;49.748;8.490;2022-12-07T12:03:40;5.30;88.60
51661;DHT22;37741;49.748;8.490;2022-12-07T12:06:06;5.30;88.60
51661;DHT22;37741;49.748;8.490;2022-12-07T12:08:39;5.30;88.60
51661;DHT22;37741;49.748;8.490;2022-12-07T12:11:26;5.30;88.60
51661;DHT22;37741;49.748;8.490;2022-12-07T12:14:10;5.30;88.60
51661;DHT22;37741;49.748;8.490;2022-12-07T12:19:42;5.30;88.50
51661;DHT22;37741;49.748;8.490;2022-12-07T12:22:16;5.30;88.60
51661;DHT22;37741;49.748;8.490;2022-12-07T12:24:45;5.30;88.50
51661;DHT22;37741;49.748;8.490;2022-12-07T12:27:25;5.30;89.20
51661;DHT22;37741;49.748;8.490;2022-12-07T12:29:54;5.30;88.60
51661;DHT22;37741;49.748;8.490;2022-12-07T12:32:23;5.40;88.50
51661;DHT22;37741;49.748;8.490;2022-12-07T12:35:31;5.40;88.50
51661;DHT22;37741;49.748;8.490;2022-12-07T12:40:42;5.40;88.30
51661;DHT22;37741;49.748;8.490;2022-12-07T12:43:48;5.40;88.40
51661;DHT22;37741;49.748;8.490;2022-12-07T12:51:49;5.40;88.10
51661;DHT22;37741;49.748;8.490;2022-12-07T13:02:26;5.40;88.10
51661;DHT22;37741;49.748;8.490;2022-12-07T13:05:03;5.50;88.20
51661;DHT22;37741;49.748;8.490;2022-12-07T13:15:39;5.50;88.20
51661;DHT22;37741;49.748;8.490;2022-12-07T13:20:57;5.50;88.00
51661;DHT22;37741;49.748;8.490;2022-12-07T13:29:15;5.60;88.10
51661;DHT22;37741;49.748;8.490;2022-12-07T13:31:45;5.50;88.10
51661;DHT22;37741;49.748;8.490;2022-12-07T13:36:52;5.60;87.90
51661;DHT22;37741;49.748;8.490;2022-12-07T13:39:20;5.60;87.90
51661;DHT22;37741;49.748;8.490;2022-12-07T13:41:56;5.60;87.90
51661;DHT22;37741;49.748;8.490;2022-12-07T13:44:24;5.60;87.60
51661;DHT22;37741;49.748;8.490;2022-12-07T13:47:11;5.60;87.80
51661;DHT22;37741;49.748;8.490;2022-12-07T13:49:53;5.60;87.80
51661;DHT22;37741;49.748;8.490;2022-12-07T13:52:25;5.60;87.70
51661;DHT22;37741;49.748;8.490;2022-12-07T13:55:20;5.60;87.70
51661;DHT22;37741;49.748;8.490;2022-12-07T13:57:52;5.60;87.60
51661;DHT22;37741;49.748;8.490;2022-12-07T14:00:21;5.60;87.60
51661;DHT22;37741;49.748;8.490;2022-12-07T14:05:34;5.70;87.60
51661;DHT22;37741;49.748;8.490;2022-12-07T14:08:03;5.60;87.60
51661;DHT22;37741;49.748;8.490;2022-12-07T14:10:33;5.60;87.60
51661;DHT22;37741;49.748;8.490;2022-12-07T14:13:01;5.60;87.70
51661;DHT22;37741;49.748;8.490;2022-12-07T14:15:34;5.60;87.60
51661;DHT22;37741;49.748;8.490;2022-12-07T14:18:01;5.60;87.60
51661;DHT22;37741;49.748;8.490;2022-12-07T14:20:40;5.60;87.60
51661;DHT22;37741;49.748;8.490;2022-12-07T14:23:23;5.70;87.60
51661;DHT22;37741;49.748;8.490;2022-12-07T14:25:52;5.70;87.60
51661;DHT22;37741;49.748;8.490;2022-12-07T14:28:30;5.60;87.50
51661;DHT22;37741;49.748;8.490;2022-12-07T14:30:56;5.60;87.50
51661;DHT22;37741;49.748;8.490;2022-12-07T14:33:23;5.70;87.50
51661;DHT22;37741;49.748;8.490;2022-12-07T14:35:49;5.60;87.30
51661;DHT22;37741;49.748;8.490;2022-12-07T14:38:15;5.60;87.30
51661;DHT22;37741;49.748;8.490;2022-12-07T14:40:40;5.60;87.20
51661;DHT22;37741;49.748;8.490;2022-12-07T14:43:11;5.70;87.00
51661;DHT22;37741;49.748;8.490;2022-12-07T14:45:38;5.60;87.20
51661;DHT22;37741;49.748;8.490;2022-12-07T14:48:05;5.60;87.10
51661;DHT22;37741;49.748;8.490;2022-12-07T14:50:38;5.60;87.10
51661;DHT22;37741;49.748;8.490;2022-12-07T14:53:17;5.60;87.20
51661;DHT22;37741;49.748;8.490;2022-12-07T14:55:44;5.60;87.20
51661;DHT22;37741;49.748;8.490;2022-12-07T14:58:16;5.70;87.10
51661;DHT22;37741;49.748;8.490;2022-12-07T15:00:42;5.60;87.00
51661;DHT22;37741;49.748;8.490;2022-12-07T15:03:08;5.60;87.10
51661;DHT22;37741;49.748;8.490;2022-12-07T15:05:34;5.60;87.10
51661;DHT22;37741;49.748;8.490;2022-12-07T15:08:00;5.60;87.10
51661;DHT22;37741;49.748;8.490;2022-12-07T15:10:29;5.60;86.90
51661;DHT22;37741;49.748;8.490;2022-12-07T15:12:57;5.60;87.10
51661;DHT22;37741;49.748;8.490;2022-12-07T15:15:42;5.60;86.70
51661;DHT22;37741;49.748;8.490;2022-12-07T15:18:08;5.60;87.00
51661;DHT22;37741;49.748;8.490;2022-12-07T15:20:33;5.60;87.20
51661;DHT22;37741;49.748;8.490;2022-12-07T15:23:00;5.60;87.30
51661;DHT22;37741;49.748;8.490;2022-12-07T15:25:26;5.60;86.90
51661;DHT22;37741;49.748;8.490;2022-12-07T15:27:51;5.60;87.20
51661;DHT22;37741;49.748;8.490;2022-12-07T15:30:17;5.60;87.20
51661;DHT22;37741;49.748;8.490;2022-12-07T15:32:43;5.60;87.00
51661;DHT22;37741;49.748;8.490;2022-12-07T15:35:09;5.60;87.00
51661;DHT22;37741;49.748;8.490;2022-12-07T15:37:34;5.60;86.90
51661;DHT22;37741;49.748;8.490;2022-12-07T15:40:00;5.60;86.70
51661;DHT22;37741;49.748;8.490;2022-12-07T15:42:25;5.60;87.10
51661;DHT22;37741;49.748;8.490;2022-12-07T15:44:51;5.60;86.80
51661;DHT22;37741;49.748;8.490;2022-12-07T15:47:34;5.60;86.80
51661;DHT22;37741;49.748;8.490;2022-12-07T15:50:04;5.60;87.00
51661;DHT22;37741;49.748;8.490;2022-12-07T15:52:30;5.60;86.90
51661;DHT22;37741;49.748;8.490;2022-12-07T15:54:56;5.60;87.20
51661;DHT22;37741;49.748;8.490;2022-12-07T15:57:22;5.60;87.30
51661;DHT22;37741;49.748;8.490;2022-12-07T15:59:47;5.60;87.30
51661;DHT22;37741;49.748;8.490;2022-12-07T16:02:13;5.60;87.40
51661;DHT22;37741;49.748;8.490;2022-12-07T16:04:39;5.60;87.20
51661;DHT22;37741;49.748;8.490;2022-12-07T16:07:05;5.60;87.40
51661;DHT22;37741;49.748;8.490;2022-12-07T16:09:31;5.60;87.40
51661;DHT22;37741;49.748;8.490;2022-12-07T16:11:57;5.60;87.40
51661;DHT22;37741;49.748;8.490;2022-12-07T16:14:22;5.60;87.40
51661;DHT22;37741;49.748;8.490;2022-12-07T16:16:48;5.60;87.30
51661;DHT22;37741;49.748;8.490;2022-12-07T16:19:14;5.60;87.30
51661;DHT22;37741;49.748;8.490;2022-12-07T16:21:40;5.60;87.30
51661;DHT22;37741;49.748;8.490;2022-12-07T16:24:06;5.50;87.30
51661;DHT22;37741;49.748;8.490;2022-12-07T16:26:32;5.50;87.30
51661;DHT22;37741;49.748;8.490;2022-12-07T16:28:58;5.50;87.30
51661;DHT22;37741;49.748;8.490;2022-12-07T16:31:26;5.50;87.90
51661;DHT22;37741;49.748;8.490;2022-12-07T16:33:54;5.60;87.40
51661;DHT22;37741;49.748;8.490;2022-12-07T16:36:20;5.60;87.20
51661;DHT22;37741;49.748;8.490;2022-12-07T16:38:47;5.50;87.30
51661;DHT22;37741;49.748;8.490;2022-12-07T16:41:13;5.50;87.20
51661;DHT22;37741;49.748;8.490;2022-12-07T16:43:39;5.50;87.30
51661;DHT22;37741;49.748;8.490;2022-12-07T16:46:05;5.50;87.20
51661;DHT22;37741;49.748;8.490;2022-12-07T16:48:31;5.50;87.20
51661;DHT22;37741;49.748;8.490;2022-12-07T16:51:04;5.50;87.30
51661;DHT22;37741;49.748;8.490;2022-12-07T16:53:30;5.50;87.30
51661;DHT22;37741;49.748;8.490;2022-12-07T16:55:55;5.50;87.30
51661;DHT22;37741;49.748;8.490;2022-12-07T16:58:21;5.50;87.30
51661;DHT22;37741;49.748;8.490;2022-12-07T17:00:46;5.50;87.30
51661;DHT22;37741;49.748;8.490;2022-12-07T17:03:12;5.50;87.30
51661;DHT22;37741;49.748;8.490;2022-12-07T17:05:41;5.50;87.30
51661;DHT22;37741;49.748;8.490;2022-12-07T17:08:08;5.50;87.40
51661;DHT22;37741;49.748;8.490;2022-12-07T17:10:39;5.50;87.40
51661;DHT22;37741;49.748;8.490;2022-12-07T17:13:06;5.50;87.40
51661;DHT22;37741;49.748;8.490;2022-12-07T17:16:04;5.50;87.40
51661;DHT22;37741;49.748;8.490;2022-12-07T17:18:34;5.50;87.40
51661;DHT22;37741;49.748;8.490;2022-12-07T17:21:07;5.50;87.40
51661;DHT22;37741;49.748;8.490;2022-12-07T17:23:35;5.50;87.40
51661;DHT22;37741;49.748;8.490;2022-12-07T17:26:06;5.50;87.40
51661;DHT22;37741;49.748;8.490;2022-12-07T17:28:33;5.50;87.40
51661;DHT22;37741;49.748;8.490;2022-12-07T17:30:59;5.50;87.50
51661;DHT22;37741;49.748;8.490;2022-12-07T17:33:25;5.50;87.50
51661;DHT22;37741;49.748;8.490;2022-12-07T17:35:50;5.50;87.50
51661;DHT22;37741;49.748;8.490;2022-12-07T17:38:16;5.50;87.50
51661;DHT22;37741;49.748;8.490;2022-12-07T17:40:41;5.50;87.50
51661;DHT22;37741;49.748;8.490;2022-12-07T17:43:07;5.50;87.50
51661;DHT22;37741;49.748;8.490;2022-12-07T17:45:33;5.50;87.50
51661;DHT22;37741;49.748;8.490;2022-12-07T17:48:00;5.50;87.50
51661;DHT22;37741;49.748;8.490;2022-12-07T17:50:26;5.50;87.60
51661;DHT22;37741;49.748;8.490;2022-12-07T17:53:11;5.50;87.60